createdAt,value
2023-03-07T00:00:40.533Z,40.58
2023-03-07T00:01:42.123Z,36.53
2023-03-07T00:02:43.732Z,38.95
2023-03-07T00:03:45.380Z,40.10
2023-03-07T00:04:47.241Z,38.85
2023-03-07T00:05:48.874Z,36.42
2023-03-07T00:06:50.407Z,33.67
2023-03-07T00:07:51.987Z,35.20
2023-03-07T00:08:56.326Z,41.15
2023-03-07T00:09:58.568Z,42.00
2023-03-07T00:11:04.727Z,39.25
2023-03-07T00:12:07.493Z,39.00
2023-03-07T00:13:09.081Z,42.85
2023-03-07T00:14:10.661Z,38.20
2023-03-07T00:15:12.429Z,38.70
2023-03-07T00:16:16.912Z,46.67
2023-03-07T00:17:18.437Z,43.40
2023-03-07T00:18:19.951Z,38.90
2023-03-07T00:19:21.655Z,37.78
2023-03-07T00:20:23.211Z,37.33
2023-03-07T00:21:24.827Z,41.50
2023-03-07T00:22:26.417Z,47.05
2023-03-07T00:23:27.991Z,36.42
2023-03-07T00:24:29.545Z,39.10
2023-03-07T00:25:31.070Z,35.88
2023-03-07T00:26:33.457Z,37.67
2023-03-07T00:27:35.259Z,34.83
2023-03-07T00:28:36.795Z,35.42
2023-03-07T00:29:38.436Z,34.08
2023-03-07T00:30:39.979Z,29.27
2023-03-07T00:31:41.678Z,29.63
2023-03-07T00:32:43.245Z,30.40
2023-03-07T00:33:45.081Z,33.58
2023-03-07T00:34:46.643Z,36.97
2023-03-07T00:35:59.927Z,42.78
2023-03-07T00:37:01.521Z,44.00
2023-03-07T00:38:03.032Z,40.22
2023-03-07T00:39:04.750Z,42.28
2023-03-07T00:40:08.054Z,41.03
2023-03-07T00:41:14.834Z,44.88
2023-03-07T00:42:16.728Z,45.28
2023-03-07T00:43:18.254Z,44.88
2023-03-07T00:44:19.826Z,38.70
2023-03-07T00:45:21.389Z,40.83
2023-03-07T00:46:25.039Z,41.22
2023-03-07T00:47:26.632Z,42.80
2023-03-07T00:48:29.013Z,44.20
2023-03-07T00:49:30.731Z,41.75
2023-03-07T00:50:32.235Z,40.80
2023-03-07T00:51:33.798Z,42.50
2023-03-07T00:52:35.332Z,43.88
2023-03-07T00:53:38.021Z,42.05
2023-03-07T00:54:39.638Z,43.05
2023-03-07T00:55:41.220Z,47.13
2023-03-07T00:56:43.054Z,46.45
2023-03-07T00:57:44.549Z,45.33
2023-03-07T00:58:47.134Z,44.17
2023-03-07T00:59:48.657Z,38.97
2023-03-07T01:00:50.415Z,41.55
2023-03-07T01:01:52.384Z,41.78
2023-03-07T01:02:55.352Z,44.42
2023-03-07T01:03:58.004Z,41.63
2023-03-07T01:04:59.537Z,47.20
2023-03-07T01:06:15.514Z,46.53
2023-03-07T01:07:17.042Z,43.90
2023-03-07T01:08:19.725Z,49.58
2023-03-07T01:09:21.496Z,49.50
2023-03-07T01:10:23.147Z,46.78
2023-03-07T01:11:25.876Z,51.83
2023-03-07T01:12:27.446Z,48.60
2023-03-07T01:13:29.822Z,47.17
2023-03-07T01:14:31.363Z,46.45
2023-03-07T01:15:33.322Z,39.88
2023-03-07T01:16:37.179Z,45.80
2023-03-07T01:17:38.825Z,46.83
2023-03-07T01:18:40.556Z,42.90
2023-03-07T01:19:42.113Z,43.38
2023-03-07T01:20:43.951Z,40.90
2023-03-07T01:21:45.498Z,42.72
2023-03-07T01:22:47.335Z,46.40
2023-03-07T01:23:49.648Z,40.05
2023-03-07T01:24:51.655Z,43.35
2023-03-07T01:25:53.241Z,46.15
2023-03-07T01:26:54.778Z,43.28
2023-03-07T01:27:56.416Z,47.88
2023-03-07T01:29:00.589Z,53.95
2023-03-07T01:30:02.287Z,47.38
2023-03-07T01:31:03.888Z,50.13
2023-03-07T01:32:05.793Z,45.15
2023-03-07T01:33:07.538Z,44.00
2023-03-07T01:34:09.104Z,45.40
2023-03-07T01:35:10.665Z,49.30
2023-03-07T01:36:30.412Z,47.40
2023-03-07T01:37:32.143Z,46.08
2023-03-07T01:38:34.228Z,41.90
2023-03-07T01:39:35.839Z,47.88
2023-03-07T01:40:38.614Z,45.42
2023-03-07T01:41:41.233Z,44.30
2023-03-07T01:42:42.878Z,38.53
2023-03-07T01:43:44.489Z,42.13
2023-03-07T01:45:01.679Z,45.28
2023-03-07T01:46:18.357Z,46.70
2023-03-07T01:47:19.952Z,48.67
2023-03-07T01:48:21.739Z,51.58
2023-03-07T01:49:42.681Z,57.67
2023-03-07T01:50:44.606Z,68.32
2023-03-07T01:51:51.225Z,58.58
2023-03-07T01:52:56.867Z,60.00
2023-03-07T01:54:00.752Z,50.67
2023-03-07T01:55:09.208Z,53.10
2023-03-07T01:56:11.201Z,59.50
2023-03-07T01:57:12.792Z,54.08
2023-03-07T01:58:15.394Z,46.25
2023-03-07T01:59:23.934Z,48.55
2023-03-07T02:00:29.736Z,45.08
2023-03-07T02:01:31.795Z,49.13
2023-03-07T02:02:33.814Z,46.28
2023-03-07T02:03:40.449Z,43.63
2023-03-07T02:04:49.440Z,43.28
2023-03-07T02:05:55.042Z,43.80
2023-03-07T02:06:56.638Z,43.35
2023-03-07T02:08:01.303Z,59.08
2023-03-07T02:09:03.485Z,56.00
2023-03-07T02:10:06.210Z,47.97
2023-03-07T02:11:08.433Z,51.03
2023-03-07T02:12:10.999Z,47.47
2023-03-07T02:13:12.684Z,47.53
2023-03-07T02:14:14.253Z,45.22
2023-03-07T02:15:15.961Z,44.85
2023-03-07T02:16:17.925Z,43.40
2023-03-07T02:17:20.072Z,41.75
2023-03-07T02:18:30.471Z,40.60
2023-03-07T02:19:41.028Z,38.97
2023-03-07T02:20:47.801Z,40.65
2023-03-07T02:22:09.057Z,40.88
2023-03-07T02:23:24.901Z,44.35
2023-03-07T02:24:39.412Z,42.95
2023-03-07T02:25:46.877Z,40.65
2023-03-07T02:26:50.880Z,44.88
2023-03-07T02:27:55.550Z,54.03
2023-03-07T02:29:01.616Z,44.38
2023-03-07T02:30:04.759Z,44.15
2023-03-07T02:31:07.705Z,39.60
2023-03-07T02:32:09.617Z,39.72
2023-03-07T02:33:11.208Z,40.92
2023-03-07T02:34:31.332Z,37.88
2023-03-07T02:35:32.886Z,42.72
2023-03-07T02:36:36.299Z,40.92
2023-03-07T02:37:38.761Z,41.28
2023-03-07T02:38:43.091Z,38.10
2023-03-07T02:39:46.363Z,37.80
2023-03-07T02:40:48.501Z,42.78
2023-03-07T02:41:53.321Z,39.08
2023-03-07T02:42:57.239Z,38.65
2023-03-07T02:43:58.816Z,42.35
2023-03-07T02:45:02.511Z,38.15
2023-03-07T02:46:04.374Z,37.20
2023-03-07T02:47:09.093Z,32.42
2023-03-07T02:48:10.857Z,35.25
2023-03-07T02:49:12.472Z,36.08
2023-03-07T02:50:15.388Z,32.95
2023-03-07T02:51:16.959Z,66.78
2023-03-07T02:52:18.609Z,68.78
2023-03-07T02:53:20.138Z,54.33
2023-03-07T02:54:21.659Z,46.63
2023-03-07T02:55:23.368Z,36.58
2023-03-07T02:56:24.939Z,40.03
2023-03-07T02:57:26.866Z,41.60
2023-03-07T02:58:28.454Z,43.28
2023-03-07T02:59:30.279Z,46.42
2023-03-07T03:00:31.994Z,41.67
2023-03-07T03:01:33.552Z,40.72
2023-03-07T03:02:35.630Z,43.40
2023-03-07T03:03:37.325Z,43.65
2023-03-07T03:04:38.904Z,42.50
2023-03-07T03:05:40.600Z,58.03
2023-03-07T03:06:42.124Z,126.03
2023-03-07T03:07:43.672Z,59.05
2023-03-07T03:08:45.322Z,41.65
2023-03-07T03:09:46.940Z,38.85
2023-03-07T03:10:57.730Z,39.88
2023-03-07T03:11:59.475Z,36.08
2023-03-07T03:13:01.058Z,43.20
2023-03-07T03:14:02.602Z,36.95
2023-03-07T03:15:04.618Z,40.10
2023-03-07T03:16:06.485Z,38.35
2023-03-07T03:17:08.033Z,35.65
2023-03-07T03:18:09.579Z,40.35
2023-03-07T03:19:11.118Z,39.28
2023-03-07T03:20:13.762Z,37.10
2023-03-07T03:21:15.784Z,39.15
2023-03-07T03:22:17.335Z,37.03
2023-03-07T03:23:18.904Z,36.00
2023-03-07T03:24:20.460Z,34.03
2023-03-07T03:25:23.264Z,37.08
2023-03-07T03:26:24.885Z,36.30
2023-03-07T03:27:26.503Z,38.63
2023-03-07T03:28:29.104Z,38.50
2023-03-07T03:29:30.651Z,38.28
2023-03-07T03:30:35.714Z,37.85
2023-03-07T03:31:37.337Z,41.92
2023-03-07T03:32:40.094Z,42.10
2023-03-07T03:33:44.158Z,44.00
2023-03-07T03:34:46.305Z,45.65
2023-03-07T03:35:47.925Z,43.17
2023-03-07T03:36:49.632Z,38.67
2023-03-07T03:37:51.160Z,36.03
2023-03-07T03:38:54.159Z,38.00
2023-03-07T03:39:55.681Z,41.38
2023-03-07T03:40:57.251Z,40.85
2023-03-07T03:41:58.841Z,41.72
2023-03-07T03:43:00.440Z,36.88
2023-03-07T03:44:02.033Z,41.17
2023-03-07T03:45:03.762Z,40.83
2023-03-07T03:46:05.333Z,41.38
2023-03-07T03:47:06.912Z,40.80
2023-03-07T03:48:08.470Z,40.53
2023-03-07T03:49:12.689Z,40.60
2023-03-07T03:50:14.262Z,42.95
2023-03-07T03:51:15.841Z,45.28
2023-03-07T03:52:17.396Z,38.85
2023-03-07T03:53:18.936Z,34.10
2023-03-07T03:54:20.485Z,38.30
2023-03-07T03:55:22.013Z,38.35
2023-03-07T03:56:24.900Z,38.50
2023-03-07T03:57:26.454Z,37.75
2023-03-07T03:58:28.021Z,36.88
2023-03-07T03:59:29.575Z,35.80
2023-03-07T04:00:31.551Z,44.80
2023-03-07T04:01:33.345Z,34.35
2023-03-07T04:02:34.967Z,36.15
2023-03-07T04:03:39.682Z,35.97
2023-03-07T04:04:41.281Z,40.08
2023-03-07T04:05:42.832Z,38.05
2023-03-07T04:06:44.398Z,36.25
2023-03-07T04:07:45.900Z,39.53
2023-03-07T04:08:48.124Z,36.33
2023-03-07T04:09:50.037Z,38.80
2023-03-07T04:10:51.557Z,39.17
2023-03-07T04:11:53.128Z,35.88
2023-03-07T04:12:54.655Z,36.85
2023-03-07T04:13:56.388Z,37.78
2023-03-07T04:14:57.923Z,36.42
2023-03-07T04:15:59.596Z,37.03
2023-03-07T04:17:01.219Z,34.80
2023-03-07T04:18:02.823Z,37.42
2023-03-07T04:19:04.364Z,37.80
2023-03-07T04:20:06.629Z,37.88
2023-03-07T04:21:08.718Z,37.95
2023-03-07T04:22:11.395Z,37.83
2023-03-07T04:23:13.083Z,37.90
2023-03-07T04:24:14.601Z,38.75
2023-03-07T04:25:16.126Z,34.53
2023-03-07T04:26:17.819Z,37.17
2023-03-07T04:27:19.423Z,38.08
2023-03-07T04:28:23.167Z,38.22
2023-03-07T04:29:24.774Z,35.95
2023-03-07T04:30:26.433Z,40.20
2023-03-07T04:31:28.727Z,58.75
2023-03-07T04:32:30.407Z,44.20
2023-03-07T04:33:31.969Z,34.47
2023-03-07T04:34:33.537Z,36.08
2023-03-07T04:35:35.407Z,36.42
2023-03-07T04:36:37.104Z,39.58
2023-03-07T04:37:38.656Z,41.78
2023-03-07T04:38:41.111Z,38.72
2023-03-07T04:39:42.652Z,34.28
2023-03-07T04:40:44.241Z,37.33
2023-03-07T04:41:45.830Z,36.05
2023-03-07T04:42:47.380Z,35.92
2023-03-07T04:43:49.126Z,39.65
2023-03-07T04:44:50.682Z,35.38
2023-03-07T04:45:53.284Z,36.78
2023-03-07T04:46:54.837Z,33.38
2023-03-07T04:47:56.410Z,35.55
2023-03-07T04:48:57.998Z,41.42
2023-03-07T04:49:59.566Z,39.88
2023-03-07T04:51:01.155Z,37.17
2023-03-07T04:52:02.695Z,37.53
2023-03-07T04:53:04.312Z,37.67
2023-03-07T04:54:05.858Z,37.25
2023-03-07T04:55:07.772Z,37.22
2023-03-07T04:56:10.310Z,43.78
2023-03-07T04:57:11.848Z,40.90
2023-03-07T04:58:13.823Z,39.13
2023-03-07T04:59:15.488Z,41.22
2023-03-07T05:00:18.016Z,41.88
2023-03-07T05:01:19.611Z,44.97
2023-03-07T05:02:21.392Z,43.83
2023-03-07T05:03:24.672Z,39.13
2023-03-07T05:04:26.245Z,40.15
2023-03-07T05:05:27.881Z,41.33
2023-03-07T05:06:29.564Z,43.13
2023-03-07T05:07:32.039Z,42.00
2023-03-07T05:08:34.273Z,38.70
2023-03-07T05:09:35.939Z,35.65
2023-03-07T05:10:37.538Z,40.85
2023-03-07T05:11:39.103Z,35.72
2023-03-07T05:12:40.651Z,38.10
2023-03-07T05:13:42.487Z,37.33
2023-03-07T05:14:44.074Z,36.97
2023-03-07T05:15:51.925Z,42.58
2023-03-07T05:16:53.462Z,45.13
2023-03-07T05:17:55.110Z,46.13
2023-03-07T05:18:56.639Z,39.47
2023-03-07T05:19:58.186Z,42.15
2023-03-07T05:20:59.911Z,40.28
2023-03-07T05:22:02.541Z,46.55
2023-03-07T05:23:04.752Z,47.83
2023-03-07T05:24:10.303Z,49.03
2023-03-07T05:25:12.370Z,46.88
2023-03-07T05:26:13.940Z,54.40
2023-03-07T05:27:16.537Z,45.25
2023-03-07T05:28:19.075Z,47.05
2023-03-07T05:29:20.648Z,48.97
2023-03-07T05:30:22.428Z,48.20
2023-03-07T05:31:24.492Z,42.72
2023-03-07T05:32:26.280Z,40.63
2023-03-07T05:33:27.917Z,44.40
2023-03-07T05:34:29.460Z,42.53
2023-03-07T05:35:31.059Z,40.55
2023-03-07T05:36:32.609Z,40.22
2023-03-07T05:37:34.166Z,42.65
2023-03-07T05:38:36.013Z,38.33
2023-03-07T05:39:37.545Z,38.92
2023-03-07T05:40:40.225Z,36.10
2023-03-07T05:41:42.019Z,38.08
2023-03-07T05:42:43.626Z,39.15
2023-03-07T05:43:45.238Z,40.78
2023-03-07T05:44:46.810Z,35.50
2023-03-07T05:45:48.358Z,33.25
2023-03-07T05:46:49.955Z,35.35
2023-03-07T05:47:51.466Z,33.95
2023-03-07T05:48:53.094Z,33.38
2023-03-07T05:49:54.671Z,33.30
2023-03-07T05:51:00.552Z,34.63
2023-03-07T05:52:02.206Z,33.63
2023-03-07T05:53:04.419Z,34.60
2023-03-07T05:54:06.097Z,37.67
2023-03-07T05:55:08.555Z,32.63
2023-03-07T05:56:10.086Z,31.23
2023-03-07T05:57:11.671Z,33.53
2023-03-07T05:58:13.221Z,37.15
2023-03-07T05:59:15.673Z,37.65
2023-03-07T06:00:17.815Z,34.88
2023-03-07T06:01:19.416Z,33.67
2023-03-07T06:02:21.348Z,39.42
2023-03-07T06:03:23.120Z,53.08
2023-03-07T06:04:24.914Z,56.80
2023-03-07T06:05:26.468Z,51.58
2023-03-07T06:06:28.037Z,46.25
2023-03-07T06:07:29.605Z,43.05
2023-03-07T06:08:31.126Z,36.90
2023-03-07T06:09:32.667Z,33.90
2023-03-07T06:10:34.312Z,35.13
2023-03-07T06:11:35.988Z,34.15
2023-03-07T06:12:37.523Z,32.20
2023-03-07T06:13:39.087Z,34.25
2023-03-07T06:14:40.650Z,34.28
2023-03-07T06:15:42.195Z,34.47
2023-03-07T06:16:44.348Z,38.40
2023-03-07T06:17:46.188Z,35.08
2023-03-07T06:18:47.726Z,30.85
2023-03-07T06:19:49.305Z,35.97
2023-03-07T06:21:02.117Z,31.27
2023-03-07T06:22:03.924Z,30.35
2023-03-07T06:23:05.465Z,32.08
2023-03-07T06:24:07.424Z,31.33
2023-03-07T06:25:09.630Z,28.00
2023-03-07T06:26:12.597Z,25.55
2023-03-07T06:27:14.176Z,29.85
2023-03-07T06:28:15.728Z,31.92
2023-03-07T06:29:17.303Z,33.47
2023-03-07T06:30:18.861Z,31.15
2023-03-07T06:31:21.119Z,29.05
2023-03-07T06:32:22.707Z,32.15
2023-03-07T06:33:24.359Z,28.42
2023-03-07T06:34:26.175Z,25.10
2023-03-07T06:35:28.229Z,27.90
2023-03-07T06:36:29.864Z,30.75
2023-03-07T06:37:31.725Z,29.15
2023-03-07T06:38:33.374Z,32.03
2023-03-07T06:39:34.946Z,32.97
2023-03-07T06:40:36.771Z,29.08
2023-03-07T06:41:38.393Z,32.08
2023-03-07T06:42:39.983Z,34.22
2023-03-07T06:43:41.591Z,35.45
2023-03-07T06:44:44.020Z,33.55
2023-03-07T06:45:45.659Z,32.10
2023-03-07T06:46:47.259Z,30.30
2023-03-07T06:47:48.800Z,37.97
2023-03-07T06:48:52.111Z,39.33
2023-03-07T06:49:53.911Z,35.53
2023-03-07T06:50:55.529Z,34.47
2023-03-07T06:51:57.141Z,34.38
2023-03-07T06:52:58.721Z,30.52
2023-03-07T06:54:00.280Z,34.45
2023-03-07T06:55:01.875Z,32.50
2023-03-07T06:56:04.303Z,29.38
2023-03-07T06:57:05.881Z,31.50
2023-03-07T06:58:07.566Z,27.17
2023-03-07T06:59:09.759Z,28.38
2023-03-07T07:00:12.448Z,33.38
2023-03-07T07:01:18.949Z,30.15
2023-03-07T07:02:20.650Z,28.60
2023-03-07T07:03:22.593Z,25.92
2023-03-07T07:04:24.287Z,26.02
2023-03-07T07:05:26.202Z,28.15
2023-03-07T07:06:27.807Z,28.20
2023-03-07T07:07:29.998Z,27.15
2023-03-07T07:08:31.579Z,25.42
2023-03-07T07:09:34.105Z,26.45
2023-03-07T07:10:36.793Z,26.88
2023-03-07T07:11:38.806Z,27.60
2023-03-07T07:12:40.405Z,27.55
2023-03-07T07:13:41.940Z,28.90
2023-03-07T07:14:43.523Z,27.08
2023-03-07T07:15:45.045Z,24.85
2023-03-07T07:16:46.747Z,23.73
2023-03-07T07:17:48.328Z,25.75
2023-03-07T07:18:52.025Z,23.58
2023-03-07T07:19:53.662Z,24.23
2023-03-07T07:20:56.243Z,25.17
2023-03-07T07:21:58.341Z,21.35
2023-03-07T07:22:59.914Z,28.08
2023-03-07T07:24:01.607Z,25.80
2023-03-07T07:25:03.326Z,19.60
2023-03-07T07:26:05.053Z,18.20
2023-03-07T07:27:07.019Z,23.80
2023-03-07T07:28:08.568Z,20.73
2023-03-07T07:29:10.513Z,18.85
2023-03-07T07:30:13.857Z,22.88
2023-03-07T07:31:15.963Z,17.85
2023-03-07T07:32:17.916Z,20.30
2023-03-07T07:33:19.912Z,21.17
2023-03-07T07:34:21.635Z,21.80
2023-03-07T07:35:23.233Z,19.55
2023-03-07T07:36:25.306Z,19.00
2023-03-07T07:37:26.897Z,28.35
2023-03-07T07:38:28.477Z,19.05
2023-03-07T07:39:30.126Z,21.50
2023-03-07T07:40:31.728Z,20.35
2023-03-07T07:41:34.048Z,20.48
2023-03-07T07:42:35.633Z,20.33
2023-03-07T07:43:37.163Z,19.33
2023-03-07T07:44:38.748Z,21.52
2023-03-07T07:45:40.313Z,19.55
2023-03-07T07:46:41.938Z,18.15
2023-03-07T07:47:43.668Z,21.08
2023-03-07T07:48:48.033Z,19.75
2023-03-07T07:49:49.618Z,17.95
2023-03-07T07:50:51.222Z,19.42
2023-03-07T07:51:52.895Z,20.10
2023-03-07T07:52:54.604Z,20.05
2023-03-07T07:53:56.154Z,19.63
2023-03-07T07:54:57.686Z,23.23
2023-03-07T07:55:59.291Z,18.67
2023-03-07T07:57:00.833Z,23.35
2023-03-07T07:58:02.411Z,19.05
2023-03-07T07:59:04.054Z,20.52
2023-03-07T08:00:07.060Z,19.38
2023-03-07T08:01:21.830Z,18.73
2023-03-07T08:02:23.409Z,20.42
2023-03-07T08:03:25.115Z,20.35
2023-03-07T08:04:26.647Z,21.20
2023-03-07T08:05:28.208Z,18.25
2023-03-07T08:06:30.015Z,18.63
2023-03-07T08:07:31.672Z,20.58
2023-03-07T08:08:33.236Z,20.05
2023-03-07T08:09:35.681Z,17.95
2023-03-07T08:10:37.208Z,19.73
2023-03-07T08:11:38.824Z,21.23
2023-03-07T08:12:40.442Z,20.38
2023-03-07T08:13:41.960Z,22.42
2023-03-07T08:14:43.788Z,23.02
2023-03-07T08:15:45.381Z,17.55
2023-03-07T08:16:47.057Z,19.92
2023-03-07T08:17:50.469Z,19.75
2023-03-07T08:18:54.554Z,22.45
2023-03-07T08:19:56.125Z,18.40
2023-03-07T08:20:59.878Z,21.40
2023-03-07T08:22:02.475Z,19.02
2023-03-07T08:23:04.373Z,17.67
2023-03-07T08:24:06.249Z,17.75
2023-03-07T08:25:08.367Z,19.42
2023-03-07T08:26:11.033Z,19.25
2023-03-07T08:27:12.573Z,27.55
2023-03-07T08:28:14.103Z,19.63
2023-03-07T08:29:15.683Z,18.38
2023-03-07T08:30:17.424Z,20.27
2023-03-07T08:31:24.245Z,19.10
2023-03-07T08:32:26.676Z,19.88
2023-03-07T08:33:28.267Z,18.95
2023-03-07T08:34:32.619Z,19.30
2023-03-07T08:35:34.318Z,23.00
2023-03-07T08:36:35.957Z,17.70
2023-03-07T08:37:37.567Z,19.98
2023-03-07T08:38:39.087Z,22.50
2023-03-07T08:39:40.609Z,22.60
2023-03-07T08:40:42.132Z,17.98
2023-03-07T08:41:43.721Z,20.50
2023-03-07T08:42:45.378Z,18.05
2023-03-07T08:43:46.953Z,19.17
2023-03-07T08:44:48.457Z,22.13
2023-03-07T08:45:53.211Z,20.52
2023-03-07T08:46:54.821Z,18.90
2023-03-07T08:47:56.753Z,22.38
2023-03-07T08:48:58.292Z,23.73
2023-03-07T08:50:00.011Z,21.25
2023-03-07T08:51:07.308Z,19.58
2023-03-07T08:52:08.850Z,20.63
2023-03-07T08:53:10.453Z,19.95
2023-03-07T08:54:11.976Z,21.08
2023-03-07T08:55:13.534Z,23.67
2023-03-07T08:56:17.831Z,19.98
2023-03-07T08:57:22.426Z,18.35
2023-03-07T08:58:23.950Z,20.60
2023-03-07T08:59:25.575Z,17.63
2023-03-07T09:00:27.473Z,16.65
2023-03-07T09:01:29.030Z,19.27
2023-03-07T09:02:30.655Z,18.52
2023-03-07T09:03:32.409Z,16.73
2023-03-07T09:04:34.085Z,19.52
2023-03-07T09:05:39.165Z,24.10
2023-03-07T09:06:40.898Z,17.67
2023-03-07T09:07:43.117Z,20.98
2023-03-07T09:08:45.299Z,17.13
2023-03-07T09:09:46.848Z,15.93
2023-03-07T09:10:48.606Z,20.35
2023-03-07T09:11:50.507Z,15.43
2023-03-07T09:12:52.044Z,17.48
2023-03-07T09:13:53.647Z,17.45
2023-03-07T09:14:55.589Z,15.70
2023-03-07T09:15:57.230Z,16.67
2023-03-07T09:16:58.817Z,16.35
2023-03-07T09:18:00.398Z,21.10
2023-03-07T09:19:02.076Z,19.73
2023-03-07T09:20:04.625Z,18.17
2023-03-07T09:21:06.419Z,17.45
2023-03-07T09:22:07.960Z,14.75
2023-03-07T09:23:10.861Z,14.73
2023-03-07T09:24:12.384Z,16.45
2023-03-07T09:25:14.535Z,15.43
2023-03-07T09:26:16.211Z,14.75
2023-03-07T09:27:17.779Z,16.38
2023-03-07T09:28:19.317Z,14.15
2023-03-07T09:29:20.896Z,19.83
2023-03-07T09:30:28.184Z,17.50
2023-03-07T09:31:29.740Z,16.92
2023-03-07T09:32:34.611Z,12.80
2023-03-07T09:33:36.458Z,11.98
2023-03-07T09:34:38.000Z,12.70
2023-03-07T09:35:39.725Z,15.43
2023-03-07T09:36:41.285Z,13.80
2023-03-07T09:37:42.824Z,13.40
2023-03-07T09:38:44.442Z,13.25
2023-03-07T09:39:48.589Z,14.60
2023-03-07T09:40:50.159Z,14.70
2023-03-07T09:42:07.022Z,13.85
2023-03-07T09:43:21.872Z,15.93
2023-03-07T09:44:41.771Z,13.23
2023-03-07T09:45:43.316Z,16.43
2023-03-07T09:47:11.086Z,15.18
2023-03-07T09:48:15.526Z,14.43
2023-03-07T09:49:40.649Z,13.77
2023-03-07T09:50:53.512Z,14.90
2023-03-07T09:51:58.734Z,13.00
2023-03-07T09:53:04.056Z,12.57
2023-03-07T09:54:33.186Z,12.00
2023-03-07T09:55:35.264Z,14.10
2023-03-07T09:56:58.096Z,15.35
2023-03-07T09:58:05.608Z,11.57
2023-03-07T09:59:25.070Z,11.02
2023-03-07T10:00:32.972Z,12.00
2023-03-07T10:01:37.805Z,18.15
2023-03-07T10:02:46.143Z,12.48
2023-03-07T10:04:02.088Z,14.23
2023-03-07T10:05:25.581Z,12.18
2023-03-07T10:06:30.640Z,10.65
2023-03-07T10:07:32.965Z,14.32
2023-03-07T10:08:34.873Z,15.05
2023-03-07T10:09:36.404Z,12.27
2023-03-07T10:10:42.600Z,10.48
2023-03-07T10:12:04.918Z,13.82
2023-03-07T10:13:54.482Z,13.13
2023-03-07T10:15:04.959Z,13.45
2023-03-07T10:16:31.376Z,15.20
2023-03-07T10:17:46.054Z,10.77
2023-03-07T10:19:13.130Z,12.68
2023-03-07T10:20:20.455Z,11.48
2023-03-07T10:21:52.575Z,10.10
2023-03-07T10:23:05.792Z,11.20
2023-03-07T10:24:25.759Z,11.80
2023-03-07T10:25:49.641Z,9.73
2023-03-07T10:27:00.751Z,11.30
2023-03-07T10:28:24.214Z,9.57
2023-03-07T10:29:32.657Z,9.13
2023-03-07T10:30:34.212Z,9.55
2023-03-07T10:31:39.611Z,10.23
2023-03-07T10:32:52.634Z,12.07
2023-03-07T10:33:54.757Z,11.05
2023-03-07T10:35:17.010Z,10.95
2023-03-07T10:36:22.999Z,13.45
2023-03-07T10:37:36.671Z,11.43
2023-03-07T10:38:48.599Z,11.20
2023-03-07T10:39:55.597Z,13.38
2023-03-07T10:40:59.732Z,15.80
2023-03-07T10:42:01.727Z,12.60
2023-03-07T10:43:05.963Z,14.93
2023-03-07T10:44:15.983Z,13.52
2023-03-07T10:45:17.829Z,17.10
2023-03-07T10:46:27.651Z,14.13
2023-03-07T10:47:29.625Z,13.75
2023-03-07T10:48:32.203Z,12.43
2023-03-07T10:49:45.686Z,17.65
2023-03-07T10:51:01.220Z,13.05
2023-03-07T10:52:07.139Z,15.07
2023-03-07T10:53:29.017Z,12.18
2023-03-07T10:54:33.529Z,15.55
2023-03-07T10:55:46.248Z,13.73
2023-03-07T10:57:06.934Z,15.07
2023-03-07T10:58:27.376Z,18.90
2023-03-07T10:59:28.919Z,12.93
2023-03-07T11:00:30.569Z,13.25
2023-03-07T11:01:34.042Z,13.43
2023-03-07T11:02:40.992Z,13.13
2023-03-07T11:04:15.768Z,12.82
2023-03-07T11:05:31.363Z,14.65
2023-03-07T11:06:39.417Z,16.42
2023-03-07T11:07:41.013Z,13.10
2023-03-07T11:08:45.274Z,11.45
2023-03-07T11:09:47.881Z,12.77
2023-03-07T11:10:49.480Z,12.48
2023-03-07T11:11:57.351Z,12.10
2023-03-07T11:12:58.983Z,13.65
2023-03-07T11:14:14.763Z,14.52
2023-03-07T11:15:24.642Z,12.23
2023-03-07T11:16:26.279Z,13.45
2023-03-07T11:17:43.717Z,15.00
2023-03-07T11:18:47.002Z,11.95
2023-03-07T11:19:53.337Z,11.45
2023-03-07T11:20:54.987Z,10.65
2023-03-07T11:21:58.571Z,10.65
2023-03-07T11:23:13.853Z,12.60
2023-03-07T11:24:31.446Z,12.35
2023-03-07T11:25:36.509Z,8.43
2023-03-07T11:26:41.241Z,8.15
2023-03-07T11:27:45.753Z,10.10
2023-03-07T11:28:47.331Z,9.18
2023-03-07T11:30:28.859Z,12.88
2023-03-07T11:31:41.180Z,13.30
2023-03-07T11:32:52.050Z,11.75
2023-03-07T11:34:07.138Z,12.27
2023-03-07T11:35:36.755Z,10.15
2023-03-07T11:36:40.304Z,7.93
2023-03-07T11:38:03.355Z,10.32
2023-03-07T11:39:12.251Z,6.43
2023-03-07T11:40:34.818Z,7.88
2023-03-07T11:41:38.668Z,8.30
2023-03-07T11:43:00.501Z,9.25
2023-03-07T11:44:23.559Z,14.95
2023-03-07T11:45:35.947Z,14.18
2023-03-07T11:47:02.366Z,13.10
2023-03-07T11:48:13.049Z,35.10
2023-03-07T11:49:20.672Z,12.85
2023-03-07T11:50:30.512Z,11.45
2023-03-07T11:51:38.526Z,11.98
2023-03-07T11:53:25.859Z,12.75
2023-03-07T11:54:37.304Z,14.80
2023-03-07T11:55:57.868Z,11.82
2023-03-07T11:57:13.222Z,12.70
2023-03-07T11:58:47.228Z,14.68
2023-03-07T11:59:59.054Z,14.32
2023-03-07T12:01:22.268Z,11.32
2023-03-07T12:02:39.814Z,11.30
2023-03-07T12:04:01.927Z,13.45
2023-03-07T12:05:27.483Z,15.45
2023-03-07T12:06:53.826Z,11.55
2023-03-07T12:08:14.031Z,12.30
2023-03-07T12:09:18.536Z,10.00
2023-03-07T12:11:06.371Z,8.07
2023-03-07T12:12:45.488Z,10.27
2023-03-07T12:13:54.505Z,11.38
2023-03-07T12:15:30.216Z,13.13
2023-03-07T12:16:43.684Z,10.73
2023-03-07T12:18:06.977Z,8.68
2023-03-07T12:19:42.820Z,9.57
2023-03-07T12:21:17.267Z,12.40
2023-03-07T12:22:29.112Z,10.65
2023-03-07T12:23:37.995Z,11.23
2023-03-07T12:25:21.110Z,8.60
2023-03-07T12:26:48.686Z,5.93
2023-03-07T12:28:13.641Z,7.93
2023-03-07T12:29:46.222Z,10.55
2023-03-07T12:31:15.820Z,7.90
2023-03-07T12:32:24.147Z,6.90
2023-03-07T12:33:27.408Z,9.93
2023-03-07T12:34:36.571Z,9.90
2023-03-07T12:35:47.898Z,12.10
2023-03-07T12:37:05.061Z,10.80
2023-03-07T12:38:18.950Z,10.05
2023-03-07T12:39:23.828Z,8.43
2023-03-07T12:41:17.991Z,8.40
2023-03-07T12:42:37.394Z,6.85
2023-03-07T12:43:48.527Z,7.45
2023-03-07T12:46:20.390Z,8.35
2023-03-07T12:47:38.143Z,7.43
2023-03-07T12:49:03.968Z,8.30
2023-03-07T12:50:31.990Z,7.97
2023-03-07T12:51:40.116Z,8.32
2023-03-07T12:53:12.611Z,7.80
2023-03-07T12:54:28.536Z,6.03
2023-03-07T12:55:46.947Z,6.47
2023-03-07T12:56:51.379Z,5.45
2023-03-07T12:58:09.129Z,7.78
2023-03-07T12:59:20.375Z,7.20
2023-03-07T13:00:23.521Z,6.20
2023-03-07T13:01:32.749Z,6.53
2023-03-07T13:02:43.434Z,9.70
2023-03-07T13:03:55.463Z,7.80
2023-03-07T13:04:58.968Z,7.47
2023-03-07T13:06:00.826Z,6.32
2023-03-07T13:07:15.784Z,7.15
2023-03-07T13:08:24.471Z,5.85
2023-03-07T13:09:27.890Z,5.85
2023-03-07T13:10:30.657Z,5.85
2023-03-07T13:11:34.664Z,6.28
2023-03-07T13:12:37.988Z,5.43
2023-03-07T13:13:42.374Z,7.10
2023-03-07T13:14:45.310Z,6.90
2023-03-07T13:16:02.782Z,7.05
2023-03-07T13:17:04.390Z,8.43
2023-03-07T13:18:26.363Z,8.52
2023-03-07T13:19:31.008Z,9.93
2023-03-07T13:20:38.719Z,6.68
2023-03-07T13:21:40.319Z,6.30
2023-03-07T13:22:41.842Z,6.38
2023-03-07T13:23:43.421Z,8.48
2023-03-07T13:24:46.539Z,8.68
2023-03-07T13:26:03.240Z,6.90
2023-03-07T13:27:14.424Z,8.73
2023-03-07T13:30:18.231Z,7.53
2023-03-07T13:31:19.756Z,8.50
2023-03-07T13:32:49.062Z,11.02
2023-03-07T13:33:50.675Z,9.35
2023-03-07T13:34:52.371Z,8.55
2023-03-07T13:35:57.771Z,8.82
2023-03-07T13:37:01.408Z,7.05
2023-03-07T13:38:15.223Z,7.75
2023-03-07T13:39:38.063Z,8.75
2023-03-07T13:40:48.606Z,7.72
2023-03-07T13:41:51.235Z,8.88
2023-03-07T13:42:53.015Z,7.68
2023-03-07T13:43:58.233Z,12.75
2023-03-07T13:44:59.782Z,11.32
2023-03-07T13:46:36.914Z,6.88
2023-03-07T13:48:32.671Z,7.97
2023-03-07T13:49:43.758Z,10.95
2023-03-07T13:50:45.237Z,8.52
2023-03-07T13:52:24.433Z,9.75
2023-03-07T13:53:41.654Z,8.02
2023-03-07T13:54:48.924Z,10.52
2023-03-07T13:56:14.965Z,12.43
2023-03-07T13:57:18.569Z,10.38
2023-03-07T13:58:35.356Z,8.68
2023-03-07T13:59:37.162Z,10.02
2023-03-07T14:00:55.950Z,9.95
2023-03-07T14:02:07.563Z,9.57
2023-03-07T14:03:27.621Z,9.40
2023-03-07T14:04:39.569Z,9.70
2023-03-07T14:05:42.203Z,8.32
2023-03-07T14:07:25.015Z,9.85
2023-03-07T14:08:31.151Z,10.55
2023-03-07T14:09:43.360Z,9.07
2023-03-07T14:10:46.862Z,10.30
2023-03-07T14:12:09.417Z,11.20